createdAt,value
2018-07-03T00:00:21.880Z,0
2018-07-03T00:01:22.463Z,0
2018-07-03T00:02:23.026Z,0
2018-07-03T00:03:23.591Z,0
2018-07-03T00:04:24.153Z,0
2018-07-03T00:05:24.714Z,0
2018-07-03T00:06:25.278Z,0
2018-07-03T00:07:25.841Z,0
2018-07-03T00:08:26.406Z,0
2018-07-03T00:09:26.968Z,0
2018-07-03T00:10:27.530Z,0
2018-07-03T00:11:28.119Z,0
2018-07-03T00:12:28.679Z,0
2018-07-03T00:13:29.261Z,0
2018-07-03T00:14:29.822Z,0
2018-07-03T00:15:30.387Z,0
2018-07-03T00:16:31.029Z,0
2018-07-03T00:17:31.613Z,0
2018-07-03T00:18:32.175Z,0
2018-07-03T00:19:32.738Z,0
2018-07-03T00:20:33.301Z,0
2018-07-03T00:21:33.867Z,0
2018-07-03T00:22:34.453Z,0
2018-07-03T00:23:35.012Z,0
2018-07-03T00:24:35.575Z,0
2018-07-03T00:25:36.138Z,0
2018-07-03T00:26:36.714Z,0
2018-07-03T00:27:37.277Z,0
2018-07-03T00:28:37.841Z,0
2018-07-03T00:29:38.383Z,0
2018-07-03T00:30:38.929Z,0
2018-07-03T00:31:39.480Z,0
2018-07-03T00:32:40.052Z,0
2018-07-03T00:33:40.602Z,0
2018-07-03T00:34:41.152Z,0
2018-07-03T00:35:41.702Z,0
2018-07-03T00:36:42.257Z,0
2018-07-03T00:37:42.806Z,0
2018-07-03T00:38:43.355Z,0
2018-07-03T00:39:43.904Z,0
2018-07-03T00:40:44.456Z,0
2018-07-03T00:41:45.014Z,0
2018-07-03T00:42:45.557Z,0
2018-07-03T00:43:46.106Z,0
2018-07-03T00:44:46.660Z,0
2018-07-03T00:45:47.205Z,0
2018-07-03T00:46:47.757Z,0
2018-07-03T00:47:48.310Z,0
2018-07-03T00:48:48.861Z,0
2018-07-03T00:49:49.410Z,0
2018-07-03T00:50:49.960Z,0
2018-07-03T00:51:50.509Z,0
2018-07-03T00:52:51.069Z,0
2018-07-03T00:53:51.614Z,0
2018-07-03T00:54:52.162Z,0
2018-07-03T00:55:52.711Z,0
2018-07-03T00:56:53.263Z,0
2018-07-03T00:57:53.814Z,0
2018-07-03T00:58:54.366Z,0
2018-07-03T00:59:54.914Z,0
2018-07-03T01:00:55.456Z,0
2018-07-03T01:01:56.009Z,0
2018-07-03T01:02:56.558Z,0
2018-07-03T01:03:57.113Z,0
2018-07-03T01:04:57.661Z,0
2018-07-03T01:05:58.211Z,0
2018-07-03T01:06:58.758Z,0
2018-07-03T01:07:59.307Z,0
2018-07-03T01:08:59.861Z,0
2018-07-03T01:10:00.408Z,0
2018-07-03T01:11:00.959Z,0
2018-07-03T01:12:01.509Z,0
2018-07-03T01:13:02.056Z,0
2018-07-03T01:14:02.607Z,0
2018-07-03T01:15:03.159Z,0
2018-07-03T01:16:03.711Z,0
2018-07-03T01:17:04.262Z,0
2018-07-03T01:18:04.807Z,0
2018-07-03T01:19:05.360Z,0
2018-07-03T01:20:05.910Z,0
2018-07-03T01:21:06.459Z,0
2018-07-03T01:22:07.013Z,0
2018-07-03T01:23:07.561Z,0
2018-07-03T01:24:08.111Z,0
2018-07-03T01:25:08.663Z,0
2018-07-03T01:26:09.213Z,0
2018-07-03T01:27:09.762Z,0
2018-07-03T01:28:10.312Z,0
2018-07-03T01:29:10.867Z,0
2018-07-03T01:30:11.418Z,0
2018-07-03T01:31:11.966Z,0
2018-07-03T01:32:12.518Z,0
2018-07-03T01:33:13.068Z,0
2018-07-03T01:34:13.615Z,0
2018-07-03T01:35:14.163Z,0
2018-07-03T01:36:14.748Z,0
2018-07-03T01:37:15.264Z,0
2018-07-03T01:38:15.814Z,0
2018-07-03T01:39:16.366Z,0
2018-07-03T01:40:16.919Z,0
2018-07-03T01:41:17.471Z,0
2018-07-03T01:42:18.015Z,0
2018-07-03T01:43:18.562Z,0
2018-07-03T01:44:19.120Z,0
2018-07-03T01:45:19.666Z,0
2018-07-03T01:46:20.217Z,0
2018-07-03T01:47:20.765Z,0
2018-07-03T01:48:21.315Z,0
2018-07-03T01:49:21.865Z,0
2018-07-03T01:50:22.421Z,0
2018-07-03T01:51:22.967Z,0
2018-07-03T01:52:23.516Z,0
2018-07-03T01:53:24.063Z,0
2018-07-03T01:54:24.608Z,0
2018-07-03T01:55:25.153Z,0
2018-07-03T01:56:25.704Z,0
2018-07-03T01:57:26.254Z,0
2018-07-03T01:58:26.806Z,0
2018-07-03T01:59:27.353Z,0
2018-07-03T02:00:27.904Z,0
2018-07-03T02:01:28.456Z,0
2018-07-03T02:02:29.002Z,0
2018-07-03T02:03:29.548Z,0
2018-07-03T02:04:30.101Z,0
2018-07-03T02:05:30.657Z,0
2018-07-03T02:06:31.211Z,0
2018-07-03T02:07:31.762Z,0
2018-07-03T02:08:32.315Z,0
2018-07-03T02:09:32.873Z,0
2018-07-03T02:10:33.451Z,0
2018-07-03T02:11:34.004Z,0
2018-07-03T02:12:34.546Z,0
2018-07-03T02:13:35.100Z,0
2018-07-03T02:14:35.655Z,0
2018-07-03T02:15:36.212Z,0
2018-07-03T02:16:36.756Z,0
2018-07-03T02:17:37.304Z,0
2018-07-03T02:18:37.856Z,0
2018-07-03T02:19:38.405Z,0
2018-07-03T02:20:38.955Z,0
2018-07-03T02:21:39.510Z,0
2018-07-03T02:22:40.054Z,0
2018-07-03T02:23:40.610Z,0
2018-07-03T02:24:41.157Z,0
2018-07-03T02:25:41.708Z,0
2018-07-03T02:26:42.260Z,0
2018-07-03T02:27:42.808Z,0
2018-07-03T02:28:43.359Z,0
2018-07-03T02:29:43.911Z,0
2018-07-03T02:30:44.462Z,0
2018-07-03T02:31:45.009Z,0
2018-07-03T02:32:45.560Z,0
2018-07-03T02:33:46.136Z,0
2018-07-03T02:34:46.658Z,0
2018-07-03T02:35:47.209Z,0
2018-07-03T02:36:47.758Z,0
2018-07-03T02:37:48.309Z,0
2018-07-03T02:38:48.860Z,4
2018-07-03T02:39:49.405Z,4
2018-07-03T02:40:49.968Z,4
2018-07-03T02:41:50.507Z,0
2018-07-03T02:42:51.048Z,4
2018-07-03T02:43:51.598Z,4
2018-07-03T02:44:52.144Z,4
2018-07-03T02:45:52.695Z,4
2018-07-03T02:46:53.240Z,4
2018-07-03T02:47:53.785Z,8
2018-07-03T02:48:54.342Z,8
2018-07-03T02:49:54.886Z,8
2018-07-03T02:50:55.442Z,8
2018-07-03T02:51:55.987Z,12
2018-07-03T02:52:56.534Z,12
2018-07-03T02:53:57.087Z,16
2018-07-03T02:54:57.636Z,12
2018-07-03T02:55:58.188Z,20
2018-07-03T02:56:58.743Z,20
2018-07-03T02:57:59.283Z,24
2018-07-03T02:58:59.833Z,28
2018-07-03T03:00:00.385Z,32
2018-07-03T03:01:00.933Z,32
2018-07-03T03:02:01.486Z,40
2018-07-03T03:03:02.033Z,44
2018-07-03T03:04:02.582Z,48
2018-07-03T03:05:03.155Z,56
2018-07-03T03:06:03.705Z,64
2018-07-03T03:07:04.233Z,72
2018-07-03T03:08:04.818Z,80
2018-07-03T03:09:05.339Z,88
2018-07-03T03:10:05.894Z,96
2018-07-03T03:11:06.447Z,112
2018-07-03T03:12:06.996Z,120
2018-07-03T03:13:07.552Z,136
2018-07-03T03:14:08.102Z,148
2018-07-03T03:15:08.660Z,160
2018-07-03T03:16:09.208Z,180
2018-07-03T03:17:09.756Z,196
2018-07-03T03:18:10.315Z,216
2018-07-03T03:19:10.868Z,232
2018-07-03T03:20:11.416Z,252
2018-07-03T03:21:11.970Z,276
2018-07-03T03:22:12.525Z,296
2018-07-03T03:23:13.078Z,324
2018-07-03T03:24:13.631Z,348
2018-07-03T03:25:14.184Z,372
2018-07-03T03:26:14.734Z,400
2018-07-03T03:27:15.287Z,428
2018-07-03T03:28:15.840Z,460
2018-07-03T03:29:16.394Z,492
2018-07-03T03:30:16.946Z,524
2018-07-03T03:31:17.504Z,560
2018-07-03T03:32:18.054Z,592
2018-07-03T03:33:18.610Z,628
2018-07-03T03:34:19.160Z,668
2018-07-03T03:35:19.710Z,704
2018-07-03T03:36:20.256Z,744
2018-07-03T03:37:20.806Z,780
2018-07-03T03:38:21.362Z,824
2018-07-03T03:39:21.906Z,864
2018-07-03T03:40:22.459Z,904
2018-07-03T03:41:23.017Z,948
2018-07-03T03:42:23.578Z,992
2018-07-03T03:43:24.134Z,1032
2018-07-03T03:44:24.679Z,1076
2018-07-03T03:45:25.236Z,1116
2018-07-03T03:46:25.791Z,1160
2018-07-03T03:47:26.347Z,1204
2018-07-03T03:48:26.897Z,1248
2018-07-03T03:49:27.453Z,1296
2018-07-03T03:50:28.005Z,1336
2018-07-03T03:51:28.560Z,1380
2018-07-03T03:52:29.115Z,1428
2018-07-03T03:53:29.670Z,1472
2018-07-03T03:54:30.222Z,1516
2018-07-03T03:55:30.774Z,1560
2018-07-03T03:56:31.325Z,1604
2018-07-03T03:57:31.879Z,1648
2018-07-03T03:58:32.429Z,1696
2018-07-03T03:59:32.985Z,1736
2018-07-03T04:00:33.540Z,1776
2018-07-03T04:01:34.093Z,1812
2018-07-03T04:02:34.651Z,1848
2018-07-03T04:03:35.204Z,1888
2018-07-03T04:04:35.762Z,1928
2018-07-03T04:05:36.313Z,1960
2018-07-03T04:06:36.869Z,1996
2018-07-03T04:07:37.427Z,2024
2018-07-03T04:08:37.978Z,2080
2018-07-03T04:09:38.533Z,2120
2018-07-03T04:10:39.091Z,2168
2018-07-03T04:11:39.645Z,2212
2018-07-03T04:12:40.197Z,2256
2018-07-03T04:13:40.741Z,2320
2018-07-03T04:14:41.288Z,2388
2018-07-03T04:15:41.845Z,2456
2018-07-03T04:16:42.391Z,2520
2018-07-03T04:17:42.946Z,2592
2018-07-03T04:18:43.500Z,2644
2018-07-03T04:19:44.055Z,2680
2018-07-03T04:20:44.614Z,2716
2018-07-03T04:21:45.168Z,2736
2018-07-03T04:22:45.717Z,2768
2018-07-03T04:23:46.266Z,2796
2018-07-03T04:24:46.821Z,2844
2018-07-03T04:25:47.382Z,2896
2018-07-03T04:26:47.935Z,2948
2018-07-03T04:27:48.493Z,2976
2018-07-03T04:28:49.045Z,3004
2018-07-03T04:29:49.596Z,3060
2018-07-03T04:30:50.153Z,3164
2018-07-03T04:31:50.706Z,3260
2018-07-03T04:32:51.263Z,3320
2018-07-03T04:33:51.823Z,3364
2018-07-03T04:34:52.375Z,3400
2018-07-03T04:35:52.933Z,3444
2018-07-03T04:36:53.495Z,3492
2018-07-03T04:37:54.046Z,3536
2018-07-03T04:38:54.605Z,3576
2018-07-03T04:39:55.162Z,3616
2018-07-03T04:40:55.716Z,3660
2018-07-03T04:41:56.275Z,3696
2018-07-03T04:42:56.833Z,3736
2018-07-03T04:43:57.387Z,3776
2018-07-03T04:44:57.946Z,3824
2018-07-03T04:45:58.501Z,3864
2018-07-03T04:46:59.086Z,3904
2018-07-03T04:47:59.605Z,3952
2018-07-03T04:49:00.162Z,4000
2018-07-03T04:50:00.719Z,4056
2018-07-03T04:51:01.278Z,4088
2018-07-03T04:52:01.831Z,4128
2018-07-03T04:53:02.380Z,4180
2018-07-03T04:54:02.936Z,4240
2018-07-03T04:55:03.494Z,4340
2018-07-03T04:56:04.051Z,4424
2018-07-03T04:57:04.604Z,4552
2018-07-03T04:58:05.162Z,6180
2018-07-03T04:59:05.715Z,9076
2018-07-03T05:00:06.273Z,11048
2018-07-03T05:01:06.832Z,11404
2018-07-03T05:02:07.387Z,11524
2018-07-03T05:03:07.951Z,11724
2018-07-03T05:04:08.513Z,11872
2018-07-03T05:05:09.075Z,11196
2018-07-03T05:06:09.640Z,8500
2018-07-03T05:07:10.199Z,7356
2018-07-03T05:08:10.765Z,10076
2018-07-03T05:09:11.327Z,12624
2018-07-03T05:10:11.967Z,13012
2018-07-03T05:11:12.447Z,13192
2018-07-03T05:12:13.019Z,13320
2018-07-03T05:13:13.582Z,13508
2018-07-03T05:14:14.151Z,13160
2018-07-03T05:15:14.721Z,10364
2018-07-03T05:16:15.282Z,7032
2018-07-03T05:17:15.845Z,5928
2018-07-03T05:18:16.415Z,9132
2018-07-03T05:19:16.988Z,13028
2018-07-03T05:20:17.551Z,14936
2018-07-03T05:21:18.125Z,15116
2018-07-03T05:22:18.690Z,15280
2018-07-03T05:23:19.262Z,14276
2018-07-03T05:24:19.826Z,10984
2018-07-03T05:25:20.403Z,11272
2018-07-03T05:26:20.975Z,14928
2018-07-03T05:27:21.535Z,16268
2018-07-03T05:28:22.099Z,16296
2018-07-03T05:29:22.672Z,13688
2018-07-03T05:30:23.248Z,9272
2018-07-03T05:31:23.888Z,6212
2018-07-03T05:32:24.385Z,9336
2018-07-03T05:33:24.970Z,14516
2018-07-03T05:34:25.522Z,18208
2018-07-03T05:35:26.087Z,18656
2018-07-03T05:36:26.655Z,18848
2018-07-03T05:37:27.225Z,18848
2018-07-03T05:38:27.794Z,18720
2018-07-03T05:39:28.476Z,18912
2018-07-03T05:40:29.046Z,19392
2018-07-03T05:41:29.610Z,19904
2018-07-03T05:42:30.187Z,20384
2018-07-03T05:43:30.753Z,20608
2018-07-03T05:44:31.316Z,20640
2018-07-03T05:45:31.969Z,20544
2018-07-03T05:46:32.576Z,20736
2018-07-03T05:47:33.142Z,21024
2018-07-03T05:48:33.717Z,21824
2018-07-03T05:49:34.288Z,22368
2018-07-03T05:50:34.862Z,22656
2018-07-03T05:51:35.431Z,22368
2018-07-03T05:52:36.000Z,22112
2018-07-03T05:53:36.570Z,22208
2018-07-03T05:54:37.145Z,22528
2018-07-03T05:55:37.725Z,23136
2018-07-03T05:56:38.358Z,23840
2018-07-03T05:57:38.867Z,24320
2018-07-03T05:58:39.435Z,24672
2018-07-03T05:59:40.011Z,24768
2018-07-03T06:00:40.589Z,24864
2018-07-03T06:01:41.155Z,24960
2018-07-03T06:02:41.725Z,25216
2018-07-03T06:03:42.308Z,25472
2018-07-03T06:04:42.890Z,25664
2018-07-03T06:05:43.446Z,26464
2018-07-03T06:06:44.045Z,27008
2018-07-03T06:07:44.666Z,27360
2018-07-03T06:08:45.242Z,27360
2018-07-03T06:09:45.814Z,27360
2018-07-03T06:10:46.520Z,27392
2018-07-03T06:11:47.107Z,27648
2018-07-03T06:12:47.657Z,28032
2018-07-03T06:13:48.230Z,28448
2018-07-03T06:14:48.861Z,29248
2018-07-03T06:15:49.380Z,30208
2018-07-03T06:16:49.954Z,30656
2018-07-03T06:17:50.526Z,30592
2018-07-03T06:18:51.100Z,30528
2018-07-03T06:19:51.668Z,30560
2018-07-03T06:20:52.240Z,31008
2018-07-03T06:21:52.806Z,31296
2018-07-03T06:22:53.394Z,30240
2018-07-03T06:23:53.955Z,21920
2018-07-03T06:24:54.526Z,18336
2018-07-03T06:25:55.104Z,26464
2018-07-03T06:26:55.679Z,33824
2018-07-03T06:27:56.250Z,35008
2018-07-03T06:28:56.845Z,34944
2018-07-03T06:29:57.391Z,34496
2018-07-03T06:30:57.960Z,34016
2018-07-03T06:31:58.538Z,33664
2018-07-03T06:32:59.113Z,33696
2018-07-03T06:33:59.695Z,34464
2018-07-03T06:35:00.426Z,34784
2018-07-03T06:36:00.835Z,35200
2018-07-03T06:37:01.401Z,35296
2018-07-03T06:38:01.974Z,35616
2018-07-03T06:39:02.552Z,36320
2018-07-03T06:40:03.133Z,37216
2018-07-03T06:41:03.699Z,38112
2018-07-03T06:42:04.275Z,38304
2018-07-03T06:43:04.849Z,37504
2018-07-03T06:44:05.427Z,36672
2018-07-03T06:45:06.004Z,36608
2018-07-03T06:46:06.573Z,36768
2018-07-03T06:47:07.151Z,37440
2018-07-03T06:48:07.727Z,38912
2018-07-03T06:49:08.296Z,40032
2018-07-03T06:50:08.874Z,40672
2018-07-03T06:51:09.451Z,40416
2018-07-03T06:52:10.220Z,40032
2018-07-03T06:53:10.597Z,39520
2018-07-03T06:54:11.170Z,39200
2018-07-03T06:55:11.877Z,39680
2018-07-03T06:56:12.309Z,39808
2018-07-03T06:57:12.886Z,40000
2018-07-03T06:58:13.462Z,40288
2018-07-03T06:59:14.029Z,40512
2018-07-03T07:00:14.609Z,41024
2018-07-03T07:01:15.183Z,41440
2018-07-03T07:02:15.752Z,41632
2018-07-03T07:03:16.330Z,42720
2018-07-03T07:04:16.901Z,43680
2018-07-03T07:05:17.556Z,44864
2018-07-03T07:06:18.133Z,45504
2018-07-03T07:07:18.705Z,46560
2018-07-03T07:08:19.395Z,46336
2018-07-03T07:09:20.093Z,45888
2018-07-03T07:10:20.535Z,45536
2018-07-03T07:11:21.111Z,45216
2018-07-03T07:12:21.689Z,44768
2018-07-03T07:13:22.276Z,45216
2018-07-03T07:14:22.854Z,46496
2018-07-03T07:15:23.432Z,47616
2018-07-03T07:16:24.008Z,48480
2018-07-03T07:17:24.579Z,49120
2018-07-03T07:18:25.166Z,48864
2018-07-03T07:19:25.747Z,48736
2018-07-03T07:20:26.368Z,49472
2018-07-03T07:21:26.949Z,50176
2018-07-03T07:22:27.518Z,51552
2018-07-03T07:23:28.097Z,53408
2018-07-03T07:24:28.677Z,53888
2018-07-03T07:25:29.257Z,52960
2018-07-03T07:26:29.843Z,51456
2018-07-03T07:27:30.416Z,50304
2018-07-03T07:28:30.995Z,51648
2018-07-03T07:29:31.569Z,54336
2018-07-03T07:30:32.139Z,56480
2018-07-03T07:31:32.716Z,57632
2018-07-03T07:32:33.283Z,58272
2018-07-03T07:33:33.861Z,58496
2018-07-03T07:34:34.436Z,58720
2018-07-03T07:35:35.014Z,59296
2018-07-03T07:36:35.594Z,59872
2018-07-03T07:37:36.162Z,59808
2018-07-03T07:38:36.739Z,59584
2018-07-03T07:39:37.328Z,58848
2018-07-03T07:40:37.904Z,57760
2018-07-03T07:41:38.482Z,57792
2018-07-03T07:42:39.069Z,58304
2018-07-03T07:43:39.646Z,59168
2018-07-03T07:44:40.218Z,61248
2018-07-03T07:45:40.795Z,63872
2018-07-03T07:46:41.372Z,64736
2018-07-03T07:47:41.941Z,63840
2018-07-03T07:48:42.517Z,62240
2018-07-03T07:49:43.093Z,61504
2018-07-03T07:50:43.664Z,61760
2018-07-03T07:51:44.250Z,62432
2018-07-03T07:52:44.827Z,62912
2018-07-03T07:53:45.394Z,65216
2018-07-03T07:54:45.968Z,66368
2018-07-03T07:55:46.549Z,66080
2018-07-03T07:56:47.136Z,66272
2018-07-03T07:57:47.736Z,66016
2018-07-03T07:58:48.295Z,65824
2018-07-03T07:59:48.868Z,66112
2018-07-03T08:00:49.451Z,66976
2018-07-03T08:01:50.031Z,67488
2018-07-03T08:02:50.619Z,68800
2018-07-03T08:03:51.189Z,70240
2018-07-03T08:04:51.768Z,71232
2018-07-03T08:05:52.346Z,72704
2018-07-03T08:06:52.930Z,72864
2018-07-03T08:07:53.503Z,72032
2018-07-03T08:08:54.078Z,71296
2018-07-03T08:09:54.653Z,71552
2018-07-03T08:10:55.218Z,71136
2018-07-03T08:11:55.797Z,71072
2018-07-03T08:12:56.386Z,71872
2018-07-03T08:13:57.079Z,72896
2018-07-03T08:14:57.655Z,73312
2018-07-03T08:15:58.282Z,73696
2018-07-03T08:16:58.857Z,74016
2018-07-03T08:17:59.452Z,76160
2018-07-03T08:19:00.015Z,76448
2018-07-03T08:20:00.595Z,75648
2018-07-03T08:21:01.168Z,74752
2018-07-03T08:22:01.864Z,74624
2018-07-03T08:23:02.436Z,75392
2018-07-03T08:24:03.012Z,75232
2018-07-03T08:25:03.592Z,75520
2018-07-03T08:26:04.169Z,76352
2018-07-03T08:27:04.740Z,77472
2018-07-03T08:28:05.319Z,78944
2018-07-03T08:29:05.895Z,78912
2018-07-03T08:30:06.483Z,77024
2018-07-03T08:31:07.056Z,76544
2018-07-03T08:32:07.631Z,77088
2018-07-03T08:33:08.227Z,76864
2018-07-03T08:34:08.845Z,78496
2018-07-03T08:35:09.367Z,79936
2018-07-03T08:36:09.951Z,81376
2018-07-03T08:37:10.542Z,81024
2018-07-03T08:38:11.102Z,77792
2018-07-03T08:39:11.679Z,75648
2018-07-03T08:40:12.260Z,75520
2018-07-03T08:41:12.841Z,77760
2018-07-03T08:42:13.412Z,80160
2018-07-03T08:43:13.991Z,81120
2018-07-03T08:44:14.564Z,81216
2018-07-03T08:45:15.172Z,79712
2018-07-03T08:46:15.749Z,76992
2018-07-03T08:47:16.323Z,77632
2018-07-03T08:48:16.896Z,79584
2018-07-03T08:49:17.474Z,82624
2018-07-03T08:50:18.042Z,84032
2018-07-03T08:51:18.623Z,85664
2018-07-03T08:52:19.204Z,84480
2018-07-03T08:53:19.782Z,82080
2018-07-03T08:54:20.365Z,80544
2018-07-03T08:55:20.949Z,79808
2018-07-03T08:56:21.531Z,82272
2018-07-03T08:57:22.185Z,85920
2018-07-03T08:58:22.799Z,87520
2018-07-03T08:59:23.306Z,86368
2018-07-03T09:00:23.888Z,84544
2018-07-03T09:01:24.469Z,82336
2018-07-03T09:02:25.044Z,82848
2018-07-03T09:03:25.619Z,85024
2018-07-03T09:04:26.196Z,86944
2018-07-03T09:05:26.775Z,85760
2018-07-03T09:06:27.355Z,82208
2018-07-03T09:07:27.926Z,77440
2018-07-03T09:08:28.508Z,76768
2018-07-03T09:09:29.141Z,79584
2018-07-03T09:10:29.717Z,84608
2018-07-03T09:11:30.312Z,88960
2018-07-03T09:12:30.869Z,90944
2018-07-03T09:13:31.446Z,89280
2018-07-03T09:14:32.021Z,84896
2018-07-03T09:15:32.599Z,82880
2018-07-03T09:16:33.177Z,83808
2018-07-03T09:17:33.750Z,87488
2018-07-03T09:18:34.347Z,92608
2018-07-03T09:19:35.217Z,94592
2018-07-03T09:20:35.758Z,92000
2018-07-03T09:21:36.595Z,86560
2018-07-03T09:22:37.152Z,80608
2018-07-03T09:23:37.779Z,77440
2018-07-03T09:24:38.305Z,75680
2018-07-03T09:25:38.881Z,79104
2018-07-03T09:26:39.469Z,81984
2018-07-03T09:27:40.048Z,85088
2018-07-03T09:28:40.620Z,87168
2018-07-03T09:29:41.194Z,86656
2018-07-03T09:30:41.779Z,85920
2018-07-03T09:31:42.367Z,81664
2018-07-03T09:32:42.928Z,77056
2018-07-03T09:33:43.501Z,75616
2018-07-03T09:34:44.088Z,79072
2018-07-03T09:35:44.723Z,86272
2018-07-03T09:36:45.286Z,94752
2018-07-03T09:37:45.859Z,98560
2018-07-03T09:38:46.434Z,96896
2018-07-03T09:39:47.026Z,91072
2018-07-03T09:40:47.583Z,85408
2018-07-03T09:41:48.172Z,81888
2018-07-03T09:42:48.743Z,84000
2018-07-03T09:43:49.332Z,86048
2018-07-03T09:44:49.905Z,89664
2018-07-03T09:45:50.483Z,93696
2018-07-03T09:46:51.049Z,96000
2018-07-03T09:47:51.623Z,98240
2018-07-03T09:48:52.231Z,100128
2018-07-03T09:49:52.786Z,97984
2018-07-03T09:50:53.376Z,95680
2018-07-03T09:51:53.964Z,95296
2018-07-03T09:52:54.586Z,95264
2018-07-03T09:53:55.207Z,95456
2018-07-03T09:54:55.832Z,96544
2018-07-03T09:55:56.389Z,97376
2018-07-03T09:56:56.946Z,100160
2018-07-03T09:57:57.525Z,102080
2018-07-03T09:58:58.101Z,102176
2018-07-03T09:59:58.691Z,99840
2018-07-03T10:00:59.265Z,94848
2018-07-03T10:01:59.845Z,90304
2018-07-03T10:03:00.427Z,89824
2018-07-03T10:04:01.020Z,90368
2018-07-03T10:05:01.583Z,92320
2018-07-03T10:06:02.152Z,96864
2018-07-03T10:07:02.725Z,99872
2018-07-03T10:08:03.301Z,98432
2018-07-03T10:09:03.876Z,94496
2018-07-03T10:10:04.459Z,91808
2018-07-03T10:11:05.029Z,91616
2018-07-03T10:12:05.611Z,92704
2018-07-03T10:13:06.328Z,96736
2018-07-03T10:14:06.866Z,100416
2018-07-03T10:15:07.425Z,101696
2018-07-03T10:16:08.004Z,99392
2018-07-03T10:17:08.581Z,96544
2018-07-03T10:18:09.153Z,95040
2018-07-03T10:19:09.724Z,91968
2018-07-03T10:20:10.300Z,89760
2018-07-03T10:21:10.901Z,90624
2018-07-03T10:22:11.501Z,92896
2018-07-03T10:23:12.075Z,94624
2018-07-03T10:24:12.650Z,95232
2018-07-03T10:25:13.235Z,95520
2018-07-03T10:26:13.805Z,94784
2018-07-03T10:27:14.379Z,93792
2018-07-03T10:28:15.040Z,94240
2018-07-03T10:29:15.526Z,95936
2018-07-03T10:30:16.101Z,99456
2018-07-03T10:31:16.685Z,103040
2018-07-03T10:32:17.250Z,104064
2018-07-03T10:33:17.829Z,102496
2018-07-03T10:34:18.410Z,101728
2018-07-03T10:35:18.985Z,99776
2018-07-03T10:36:19.579Z,98560
2018-07-03T10:37:20.144Z,98560
2018-07-03T10:38:20.729Z,99232
2018-07-03T10:39:21.300Z,99840
2018-07-03T10:40:21.877Z,99776
2018-07-03T10:41:22.458Z,100576
2018-07-03T10:42:23.031Z,100800
2018-07-03T10:43:23.603Z,99680
2018-07-03T10:44:24.178Z,98048
2018-07-03T10:45:24.798Z,100704
2018-07-03T10:46:25.329Z,105056
2018-07-03T10:47:25.940Z,107232
2018-07-03T10:48:26.500Z,107008
2018-07-03T10:49:27.095Z,106176
2018-07-03T10:50:27.625Z,103680
2018-07-03T10:51:28.208Z,100736
2018-07-03T10:52:28.782Z,99328
2018-07-03T10:53:29.361Z,99328
2018-07-03T10:54:29.946Z,101504
2018-07-03T10:55:30.528Z,103520
2018-07-03T10:56:31.087Z,103744
2018-07-03T10:57:31.677Z,102784
2018-07-03T10:58:32.242Z,101568
2018-07-03T10:59:32.868Z,100704
2018-07-03T11:00:33.395Z,99072
2018-07-03T11:01:33.972Z,102560
2018-07-03T11:02:34.560Z,106400
2018-07-03T11:03:35.124Z,106272
2018-07-03T11:04:35.706Z,103360
2018-07-03T11:05:36.295Z,100352
2018-07-03T11:06:37.072Z,98144
2018-07-03T11:07:37.701Z,97856
2018-07-03T11:08:38.280Z,97024
2018-07-03T11:09:38.852Z,98560
2018-07-03T11:10:39.483Z,102112
2018-07-03T11:11:40.102Z,102336
2018-07-03T11:12:40.732Z,101408
2018-07-03T11:13:41.319Z,101248
2018-07-03T11:14:41.944Z,101952
2018-07-03T11:15:42.485Z,101792
2018-07-03T11:16:43.076Z,99840
2018-07-03T11:17:43.673Z,100448
2018-07-03T11:18:44.217Z,101056
2018-07-03T11:19:44.821Z,101568
2018-07-03T11:20:45.382Z,100992
2018-07-03T11:21:45.954Z,101856
2018-07-03T11:22:46.548Z,104416
2018-07-03T11:23:47.111Z,103264
2018-07-03T11:24:47.697Z,101760
2018-07-03T11:25:48.306Z,101056
2018-07-03T11:26:48.952Z,97984
2018-07-03T11:27:49.729Z,97280
2018-07-03T11:28:50.319Z,99936
2018-07-03T11:29:50.880Z,106560
2018-07-03T11:30:51.505Z,110944
2018-07-03T11:31:52.111Z,111168
2018-07-03T11:32:52.736Z,109376
2018-07-03T11:33:53.345Z,106624
2018-07-03T11:34:54.016Z,105760
2018-07-03T11:35:54.621Z,107488
2018-07-03T11:36:55.196Z,107904
2018-07-03T11:37:55.799Z,106720
2018-07-03T11:38:56.376Z,105792
2018-07-03T11:39:56.980Z,107104
2018-07-03T11:40:57.623Z,110144
2018-07-03T11:41:58.255Z,110080
2018-07-03T11:42:58.834Z,108640
2018-07-03T11:43:59.462Z,103712
2018-07-03T11:44:59.994Z,99488
2018-07-03T11:46:00.581Z,100608
2018-07-03T11:47:01.159Z,104928
2018-07-03T11:48:01.735Z,108736
2018-07-03T11:49:02.295Z,111200
2018-07-03T11:50:02.912Z,110848
2018-07-03T11:51:03.455Z,107808
2018-07-03T11:52:04.035Z,104768
2018-07-03T11:53:04.619Z,102080
2018-07-03T11:54:05.193Z,99584
2018-07-03T11:55:05.772Z,101792
2018-07-03T11:56:06.353Z,106784
2018-07-03T11:57:06.937Z,110912
2018-07-03T11:58:07.506Z,112608
2018-07-03T11:59:08.084Z,110208
2018-07-03T12:00:08.662Z,105728
2018-07-03T12:01:09.259Z,101952
2018-07-03T12:02:09.837Z,101696
2018-07-03T12:03:10.412Z,104960
2018-07-03T12:04:10.995Z,107872
2018-07-03T12:05:11.576Z,108160
2018-07-03T12:06:12.149Z,106592
2018-07-03T12:07:12.714Z,105056
2018-07-03T12:08:13.313Z,104544
2018-07-03T12:09:13.870Z,107360
2018-07-03T12:10:14.503Z,108736
2018-07-03T12:11:15.151Z,107552
2018-07-03T12:12:15.645Z,102368
2018-07-03T12:13:16.221Z,96960
2018-07-03T12:14:16.793Z,95424
2018-07-03T12:15:17.374Z,97632
2018-07-03T12:16:17.944Z,99968
2018-07-03T12:17:18.538Z,102784
2018-07-03T12:18:19.108Z,102464
2018-07-03T12:19:19.703Z,99200
2018-07-03T12:20:20.273Z,94560
2018-07-03T12:21:20.857Z,91072
2018-07-03T12:22:21.451Z,90272
2018-07-03T12:23:22.021Z,93408
2018-07-03T12:24:22.595Z,98304
2018-07-03T12:25:23.185Z,103616
2018-07-03T12:26:23.786Z,107680
2018-07-03T12:27:24.346Z,108992
2018-07-03T12:28:24.928Z,107104
2018-07-03T12:29:25.806Z,105568
2018-07-03T12:30:26.281Z,106464
2018-07-03T12:31:26.861Z,107072
2018-07-03T12:32:27.439Z,107776
2018-07-03T12:33:28.020Z,107232
2018-07-03T12:34:28.649Z,106080
2018-07-03T12:35:29.219Z,104384
2018-07-03T12:36:29.800Z,105920
2018-07-03T12:37:30.373Z,105984
2018-07-03T12:38:30.954Z,106368
2018-07-03T12:39:31.528Z,108480
2018-07-03T12:40:32.098Z,109184
2018-07-03T12:41:32.679Z,108672
2018-07-03T12:42:33.252Z,106336
2018-07-03T12:43:33.912Z,103872
2018-07-03T12:44:34.512Z,99680
2018-07-03T12:45:35.054Z,99616
2018-07-03T12:46:35.630Z,101408
2018-07-03T12:47:36.222Z,104096
2018-07-03T12:48:36.787Z,106080
2018-07-03T12:49:37.369Z,106720
2018-07-03T12:50:37.972Z,109248
2018-07-03T12:51:38.608Z,109184
2018-07-03T12:52:39.110Z,104992
2018-07-03T12:53:39.688Z,101440
2018-07-03T12:54:40.273Z,98368
2018-07-03T12:55:40.862Z,100224
2018-07-03T12:56:41.432Z,101536
2018-07-03T12:57:42.015Z,103936
2018-07-03T12:58:42.595Z,105472
2018-07-03T12:59:43.167Z,106240
2018-07-03T13:00:43.793Z,103200
2018-07-03T13:01:44.374Z,98368
2018-07-03T13:02:44.949Z,94560
2018-07-03T13:03:45.524Z,94464
2018-07-03T13:04:46.103Z,97888
2018-07-03T13:05:46.675Z,102720
2018-07-03T13:06:47.254Z,104704
2018-07-03T13:07:47.839Z,102144
2018-07-03T13:08:48.414Z,99232
2018-07-03T13:09:49.028Z,94336
2018-07-03T13:10:49.664Z,89280
2018-07-03T13:11:50.153Z,87392
2018-07-03T13:12:50.732Z,89504
2018-07-03T13:13:51.513Z,93504
2018-07-03T13:14:52.087Z,97344
2018-07-03T13:15:52.688Z,98912
2018-07-03T13:16:53.247Z,95616
2018-07-03T13:17:53.818Z,90176
2018-07-03T13:18:54.386Z,84544
2018-07-03T13:19:54.968Z,84224
2018-07-03T13:20:55.541Z,88192
2018-07-03T13:21:56.120Z,95904
2018-07-03T13:22:56.688Z,102944
2018-07-03T13:23:57.271Z,107936
2018-07-03T13:24:57.834Z,107360